sensor_id;sensor_type;location;lat;lon;timestamp;pressure;altitude;pressure_sealevel;temperature;humidity
72110;BME280;59983;52.010;5.420;2022-12-16T00:01:24;101014.84;;;0.21;80.83
72110;BME280;59983;52.010;5.420;2022-12-16T00:03:57;101020.19;;;0.16;80.79
72110;BME280;59983;52.010;5.420;2022-12-16T00:06:26;101028.22;;;0.11;81.12
72110;BME280;59983;52.010;5.420;2022-12-16T00:08:54;101015.16;;;0.04;81.23
72110;BME280;59983;52.010;5.420;2022-12-16T00:11:21;101025.28;;;-0.03;81.00
72110;BME280;59983;52.010;5.420;2022-12-16T00:13:47;101027.19;;;-0.09;81.57
72110;BME280;59983;52.010;5.420;2022-12-16T00:16:16;101030.38;;;-0.12;81.85
72110;BME280;59983;52.010;5.420;2022-12-16T00:18:44;101028.78;;;-0.23;81.69
72110;BME280;59983;52.010;5.420;2022-12-16T00:21:11;101039.19;;;-0.21;81.51
72110;BME280;59983;52.010;5.420;2022-12-16T00:23:38;101046.91;;;-0.20;81.97
72110;BME280;59983;52.010;5.420;2022-12-16T00:26:07;101049.06;;;-0.17;82.01
72110;BME280;59983;52.010;5.420;2022-12-16T00:28:34;101041.31;;;-0.08;81.59
72110;BME280;59983;52.010;5.420;2022-12-16T00:31:00;101043.44;;;-0.10;82.11
72110;BME280;59983;52.010;5.420;2022-12-16T00:33:27;101041.03;;;-0.12;82.20
72110;BME280;59983;52.010;5.420;2022-12-16T00:35:55;101047.19;;;-0.06;82.32
72110;BME280;59983;52.010;5.420;2022-12-16T00:38:23;101052.25;;;-0.15;82.00
72110;BME280;59983;52.010;5.420;2022-12-16T00:40:51;101051.69;;;-0.12;82.32
72110;BME280;59983;52.010;5.420;2022-12-16T00:43:17;101051.72;;;-0.07;82.33
72110;BME280;59983;52.010;5.420;2022-12-16T00:45:45;101047.97;;;0.10;82.54
72110;BME280;59983;52.010;5.420;2022-12-16T00:48:13;101046.88;;;0.11;82.41
72110;BME280;59983;52.010;5.420;2022-12-16T00:50:39;101052.50;;;0.04;82.16
72110;BME280;59983;52.010;5.420;2022-12-16T00:53:06;101048.78;;;0.00;82.78
72110;BME280;59983;52.010;5.420;2022-12-16T00:55:33;101059.13;;;0.07;82.72
72110;BME280;59983;52.010;5.420;2022-12-16T00:58:00;101056.22;;;0.13;82.99
72110;BME280;59983;52.010;5.420;2022-12-16T01:00:26;101057.53;;;0.16;82.57
72110;BME280;59983;52.010;5.420;2022-12-16T01:02:53;101066.59;;;0.15;82.98
72110;BME280;59983;52.010;5.420;2022-12-16T01:05:21;101069.81;;;0.07;83.12
72110;BME280;59983;52.010;5.420;2022-12-16T01:07:53;101068.22;;;0.11;83.00
72110;BME280;59983;52.010;5.420;2022-12-16T01:10:20;101075.41;;;0.10;83.19
72110;BME280;59983;52.010;5.420;2022-12-16T01:12:47;101071.66;;;0.16;83.21
72110;BME280;59983;52.010;5.420;2022-12-16T01:15:14;101069.78;;;0.17;83.49
72110;BME280;59983;52.010;5.420;2022-12-16T01:17:40;101073.53;;;0.21;83.56
72110;BME280;59983;52.010;5.420;2022-12-16T01:20:08;101081.78;;;0.24;83.30
72110;BME280;59983;52.010;5.420;2022-12-16T01:22:35;101086.06;;;0.36;83.00
72110;BME280;59983;52.010;5.420;2022-12-16T01:25:02;101085.22;;;0.40;82.75
72110;BME280;59983;52.010;5.420;2022-12-16T01:27:29;101091.91;;;0.33;82.77
72110;BME280;59983;52.010;5.420;2022-12-16T01:29:55;101090.59;;;0.30;83.10
72110;BME280;59983;52.010;5.420;2022-12-16T01:32:22;101099.91;;;0.33;82.75
72110;BME280;59983;52.010;5.420;2022-12-16T01:34:52;101107.41;;;0.36;83.05
72110;BME280;59983;52.010;5.420;2022-12-16T01:37:21;101110.06;;;0.36;82.66
72110;BME280;59983;52.010;5.420;2022-12-16T01:39:48;101103.91;;;0.40;82.72
72110;BME280;59983;52.010;5.420;2022-12-16T01:42:18;101112.44;;;0.37;83.03
72110;BME280;59983;52.010;5.420;2022-12-16T01:44:46;101097.75;;;0.40;82.63
72110;BME280;59983;52.010;5.420;2022-12-16T01:47:19;101109.25;;;0.45;82.31
72110;BME280;59983;52.010;5.420;2022-12-16T01:50:03;101115.41;;;0.36;82.06
72110;BME280;59983;52.010;5.420;2022-12-16T01:52:33;101121.22;;;0.43;82.53
72110;BME280;59983;52.010;5.420;2022-12-16T01:55:15;101126.31;;;0.44;82.21
72110;BME280;59983;52.010;5.420;2022-12-16T01:57:51;101125.25;;;0.45;82.19
72110;BME280;59983;52.010;5.420;2022-12-16T02:00:21;101123.91;;;0.43;82.22
72110;BME280;59983;52.010;5.420;2022-12-16T02:02:48;101121.78;;;0.40;82.52
72110;BME280;59983;52.010;5.420;2022-12-16T02:05:16;101120.16;;;0.44;82.15
72110;BME280;59983;52.010;5.420;2022-12-16T02:08:17;101126.28;;;0.49;82.05
72110;BME280;59983;52.010;5.420;2022-12-16T02:11:20;101119.09;;;0.35;82.25
72110;BME280;59983;52.010;5.420;2022-12-16T02:23:39;101141.78;;;0.42;82.51
72110;BME280;59983;52.010;5.420;2022-12-16T02:34:40;101152.44;;;0.47;82.05
72110;BME280;59983;52.010;5.420;2022-12-16T02:37:41;101146.03;;;0.48;81.99
72110;BME280;59983;52.010;5.420;2022-12-16T02:40:18;101148.19;;;0.46;82.08
72110;BME280;59983;52.010;5.420;2022-12-16T02:42:51;101144.72;;;0.41;82.42
72110;BME280;59983;52.010;5.420;2022-12-16T02:45:28;101157.25;;;0.40;82.14
72110;BME280;59983;52.010;5.420;2022-12-16T02:47:56;101152.75;;;0.36;82.23
72110;BME280;59983;52.010;5.420;2022-12-16T02:50:35;101155.94;;;0.33;82.35
72110;BME280;59983;52.010;5.420;2022-12-16T02:53:04;101155.94;;;0.33;82.34
72110;BME280;59983;52.010;5.420;2022-12-16T02:55:44;101164.47;;;0.40;82.29
72110;BME280;59983;52.010;5.420;2022-12-16T03:00:55;101164.72;;;0.43;82.57
72110;BME280;59983;52.010;5.420;2022-12-16T03:03:35;101165.78;;;0.52;82.44
72110;BME280;59983;52.010;5.420;2022-12-16T03:06:06;101172.72;;;0.59;82.03
72110;BME280;59983;52.010;5.420;2022-12-16T03:08:39;101174.59;;;0.58;82.24
72110;BME280;59983;52.010;5.420;2022-12-16T03:11:08;101175.38;;;0.59;82.33
72110;BME280;59983;52.010;5.420;2022-12-16T03:13:38;101183.63;;;0.67;81.93
72110;BME280;59983;52.010;5.420;2022-12-16T03:16:09;101181.50;;;0.69;81.60
72110;BME280;59983;52.010;5.420;2022-12-16T03:18:39;101189.50;;;0.69;81.95
72110;BME280;59983;52.010;5.420;2022-12-16T03:21:07;101191.91;;;0.76;81.84
72110;BME280;59983;52.010;5.420;2022-12-16T03:29:04;101190.03;;;0.61;82.46
72110;BME280;59983;52.010;5.420;2022-12-16T03:31:39;101203.41;;;0.66;82.89
72110;BME280;59983;52.010;5.420;2022-12-16T03:34:25;101194.84;;;0.74;83.21
72110;BME280;59983;52.010;5.420;2022-12-16T03:37:01;101189.47;;;0.79;83.02
72110;BME280;59983;52.010;5.420;2022-12-16T03:39:32;101199.59;;;0.88;83.83
72110;BME280;59983;52.010;5.420;2022-12-16T03:42:01;101199.31;;;0.94;84.20
72110;BME280;59983;52.010;5.420;2022-12-16T03:44:29;101203.31;;;1.02;83.80
72110;BME280;59983;52.010;5.420;2022-12-16T03:46:55;101214.78;;;1.07;84.20
72110;BME280;59983;52.010;5.420;2022-12-16T03:49:22;101215.88;;;1.06;84.34
72110;BME280;59983;52.010;5.420;2022-12-16T03:51:49;101225.97;;;1.14;84.42
72110;BME280;59983;52.010;5.420;2022-12-16T03:54:15;101220.38;;;1.11;85.01
72110;BME280;59983;52.010;5.420;2022-12-16T03:56:44;101228.13;;;1.12;85.02
72110;BME280;59983;52.010;5.420;2022-12-16T03:59:10;101236.13;;;1.18;85.25
72110;BME280;59983;52.010;5.420;2022-12-16T04:01:37;101233.19;;;1.19;85.62
72110;BME280;59983;52.010;5.420;2022-12-16T04:04:03;101239.31;;;1.20;86.01
72110;BME280;59983;52.010;5.420;2022-12-16T04:06:30;101239.56;;;1.23;86.06
72110;BME280;59983;52.010;5.420;2022-12-16T04:08:56;101244.41;;;1.21;86.08
72110;BME280;59983;52.010;5.420;2022-12-16T04:11:23;101248.41;;;1.24;86.48
72110;BME280;59983;52.010;5.420;2022-12-16T04:14:08;101247.59;;;1.28;86.53
72110;BME280;59983;52.010;5.420;2022-12-16T04:16:53;101243.56;;;1.31;86.63
72110;BME280;59983;52.010;5.420;2022-12-16T04:19:39;101249.97;;;1.35;86.69
72110;BME280;59983;52.010;5.420;2022-12-16T04:22:30;101248.63;;;1.42;86.72
72110;BME280;59983;52.010;5.420;2022-12-16T04:25:19;101253.69;;;1.39;86.74
72110;BME280;59983;52.010;5.420;2022-12-16T04:27:47;101256.06;;;1.51;86.99
72110;BME280;59983;52.010;5.420;2022-12-16T04:30:15;101255.22;;;1.55;86.55
72110;BME280;59983;52.010;5.420;2022-12-16T04:33:03;101263.25;;;1.55;86.37
72110;BME280;59983;52.010;5.420;2022-12-16T04:35:48;101270.19;;;1.56;86.91
72110;BME280;59983;52.010;5.420;2022-12-16T04:38:33;101268.88;;;1.54;86.72
72110;BME280;59983;52.010;5.420;2022-12-16T04:41:18;101272.34;;;1.54;86.94
72110;BME280;59983;52.010;5.420;2022-12-16T04:44:03;101279.28;;;1.55;87.08
72110;BME280;59983;52.010;5.420;2022-12-16T04:46:48;101284.88;;;1.59;87.30
72110;BME280;59983;52.010;5.420;2022-12-16T04:49:33;101280.06;;;1.61;87.54
72110;BME280;59983;52.010;5.420;2022-12-16T04:52:19;101287.25;;;1.70;87.42
72110;BME280;59983;52.010;5.420;2022-12-16T04:55:04;101279.75;;;1.73;87.49
72110;BME280;59983;52.010;5.420;2022-12-16T04:57:54;101279.75;;;1.73;87.46
72110;BME280;59983;52.010;5.420;2022-12-16T05:00:40;101282.69;;;1.71;87.02
72110;BME280;59983;52.010;5.420;2022-12-16T05:03:26;101281.06;;;1.75;87.43
72110;BME280;59983;52.010;5.420;2022-12-16T05:06:12;101276.78;;;1.74;87.57
72110;BME280;59983;52.010;5.420;2022-12-16T05:08:57;101277.88;;;1.78;87.20
72110;BME280;59983;52.010;5.420;2022-12-16T05:11:43;101280.25;;;1.80;87.18
72110;BME280;59983;52.010;5.420;2022-12-16T05:14:28;101279.47;;;1.79;87.44
72110;BME280;59983;52.010;5.420;2022-12-16T05:17:13;101276.28;;;1.77;87.11
72110;BME280;59983;52.010;5.420;2022-12-16T05:19:58;101294.44;;;1.75;86.76
72110;BME280;59983;52.010;5.420;2022-12-16T05:22:43;101294.44;;;1.75;87.34
72110;BME280;59983;52.010;5.420;2022-12-16T05:25:28;101291.81;;;1.65;86.95
72110;BME280;59983;52.010;5.420;2022-12-16T05:28:14;101293.72;;;1.59;87.19
72110;BME280;59983;52.010;5.420;2022-12-16T05:30:59;101304.94;;;1.61;87.13
72110;BME280;59983;52.010;5.420;2022-12-16T05:33:44;101296.13;;;1.56;87.26
72110;BME280;59983;52.010;5.420;2022-12-16T05:36:28;101302.53;;;1.55;87.31
72110;BME280;59983;52.010;5.420;2022-12-16T05:39:13;101307.88;;;1.60;87.43
72110;BME280;59983;52.010;5.420;2022-12-16T05:41:58;101315.34;;;1.63;87.00
72110;BME280;59983;52.010;5.420;2022-12-16T05:44:43;101307.59;;;1.61;86.66
72110;BME280;59983;52.010;5.420;2022-12-16T05:47:27;101317.50;;;1.56;86.78
72110;BME280;59983;52.010;5.420;2022-12-16T05:50:12;101320.47;;;1.49;86.25
72110;BME280;59983;52.010;5.420;2022-12-16T05:52:57;101316.22;;;1.43;86.21
72110;BME280;59983;52.010;5.420;2022-12-16T05:55:43;101316.50;;;1.41;86.17
72110;BME280;59983;52.010;5.420;2022-12-16T05:58:28;101315.44;;;1.37;86.35
72110;BME280;59983;52.010;5.420;2022-12-16T06:01:13;101320.81;;;1.27;85.93
72110;BME280;59983;52.010;5.420;2022-12-16T06:03:58;101316.00;;;1.19;86.00
72110;BME280;59983;52.010;5.420;2022-12-16T06:06:43;101314.69;;;1.17;85.65
72110;BME280;59983;52.010;5.420;2022-12-16T06:09:29;101323.22;;;1.03;85.94
72110;BME280;59983;52.010;5.420;2022-12-16T06:12:20;101323.25;;;0.98;85.97
72110;BME280;59983;52.010;5.420;2022-12-16T06:15:05;101325.09;;;0.88;86.05
72110;BME280;59983;52.010;5.420;2022-12-16T06:17:50;101318.72;;;0.89;85.93
72110;BME280;59983;52.010;5.420;2022-12-16T06:20:35;101312.56;;;0.83;85.75
72110;BME280;59983;52.010;5.420;2022-12-16T06:23:20;101324.84;;;0.84;85.54
72110;BME280;59983;52.010;5.420;2022-12-16T06:26:06;101325.38;;;0.86;85.83
72110;BME280;59983;52.010;5.420;2022-12-16T06:28:51;101331.53;;;0.87;85.57
72110;BME280;59983;52.010;5.420;2022-12-16T06:31:36;101330.47;;;0.82;85.27
72110;BME280;59983;52.010;5.420;2022-12-16T06:34:21;101334.72;;;0.78;85.66
72110;BME280;59983;52.010;5.420;2022-12-16T06:37:06;101340.34;;;0.77;85.55
72110;BME280;59983;52.010;5.420;2022-12-16T06:39:51;101343.28;;;0.80;85.41
72110;BME280;59983;52.010;5.420;2022-12-16T06:42:39;101341.94;;;0.73;85.04
72110;BME280;59983;52.010;5.420;2022-12-16T06:45:25;101340.06;;;0.68;85.66
72110;BME280;59983;52.010;5.420;2022-12-16T06:48:11;101356.88;;;0.69;85.07
72110;BME280;59983;52.010;5.420;2022-12-16T06:50:56;101362.75;;;0.61;85.11
72110;BME280;59983;52.010;5.420;2022-12-16T06:53:40;101363.28;;;0.57;85.40
72110;BME280;59983;52.010;5.420;2022-12-16T06:56:25;101368.63;;;0.63;85.15
72110;BME280;59983;52.010;5.420;2022-12-16T06:59:10;101374.47;;;0.60;85.16
72110;BME280;59983;52.010;5.420;2022-12-16T07:01:55;101378.50;;;0.67;84.92
72110;BME280;59983;52.010;5.420;2022-12-16T07:04:40;101383.06;;;0.72;84.83
72110;BME280;59983;52.010;5.420;2022-12-16T07:07:25;101383.59;;;0.74;84.80
72110;BME280;59983;52.010;5.420;2022-12-16T07:10:11;101393.75;;;0.72;84.46
72110;BME280;59983;52.010;5.420;2022-12-16T07:12:57;101390.53;;;0.75;84.23
72110;BME280;59983;52.010;5.420;2022-12-16T07:15:42;101404.66;;;0.70;84.23
72110;BME280;59983;52.010;5.420;2022-12-16T07:18:27;101396.91;;;0.53;83.90
72110;BME280;59983;52.010;5.420;2022-12-16T07:21:12;101412.91;;;0.48;84.01
72110;BME280;59983;52.010;5.420;2022-12-16T07:23:57;101407.03;;;0.51;84.24
72110;BME280;59983;52.010;5.420;2022-12-16T07:26:41;101405.69;;;0.49;84.27
72110;BME280;59983;52.010;5.420;2022-12-16T07:29:26;101408.91;;;0.51;84.48
72110;BME280;59983;52.010;5.420;2022-12-16T07:32:11;101423.88;;;0.57;84.35
72110;BME280;59983;52.010;5.420;2022-12-16T07:34:56;101431.63;;;0.53;84.59
72110;BME280;59983;52.010;5.420;2022-12-16T07:37:41;101429.47;;;0.61;84.32
72110;BME280;59983;52.010;5.420;2022-12-16T07:40:26;101433.75;;;0.56;84.14
72110;BME280;59983;52.010;5.420;2022-12-16T07:43:22;101436.31;;;0.31;83.22
72110;BME280;59983;52.010;5.420;2022-12-16T07:46:07;101441.00;;;0.04;81.84
72110;BME280;59983;52.010;5.420;2022-12-16T07:48:52;101449.41;;;-0.25;80.91
72110;BME280;59983;52.010;5.420;2022-12-16T07:51:37;101443.34;;;-0.52;81.34
72110;BME280;59983;52.010;5.420;2022-12-16T07:54:22;101448.09;;;-0.60;81.34
72110;BME280;59983;52.010;5.420;2022-12-16T07:57:07;101458.75;;;-0.60;81.65
72110;BME280;59983;52.010;5.420;2022-12-16T07:59:52;101467.88;;;-0.45;82.58
72110;BME280;59983;52.010;5.420;2022-12-16T08:02:37;101467.88;;;-0.45;82.53
72110;BME280;59983;52.010;5.420;2022-12-16T08:05:41;101472.13;;;-0.49;81.97
72110;BME280;59983;52.010;5.420;2022-12-16T08:08:26;101473.22;;;-0.45;82.68
72110;BME280;59983;52.010;5.420;2022-12-16T08:11:11;101481.19;;;-0.50;82.38
72110;BME280;59983;52.010;5.420;2022-12-16T08:13:56;101485.72;;;-0.51;82.56
72110;BME280;59983;52.010;5.420;2022-12-16T08:16:41;101487.84;;;-0.53;82.86
72110;BME280;59983;52.010;5.420;2022-12-16T08:19:26;101487.06;;;-0.48;82.09
72110;BME280;59983;52.010;5.420;2022-12-16T08:22:11;101494.00;;;-0.47;82.23
72110;BME280;59983;52.010;5.420;2022-12-16T08:24:56;101492.72;;;-0.40;82.03
72110;BME280;59983;52.010;5.420;2022-12-16T08:27:42;101500.13;;;-0.47;82.30
72110;BME280;59983;52.010;5.420;2022-12-16T08:30:27;101505.47;;;-0.47;82.46
72110;BME280;59983;52.010;5.420;2022-12-16T08:33:12;101504.28;;;-0.61;81.69
72110;BME280;59983;52.010;5.420;2022-12-16T08:35:57;101513.94;;;-0.82;82.19
72110;BME280;59983;52.010;5.420;2022-12-16T08:38:43;101517.38;;;-0.87;81.75
72110;BME280;59983;52.010;5.420;2022-12-16T08:41:28;101520.66;;;-0.79;82.75
72110;BME280;59983;52.010;5.420;2022-12-16T08:44:13;101529.66;;;-0.80;82.50
72110;BME280;59983;52.010;5.420;2022-12-16T08:46:57;101530.72;;;-0.81;81.79
72110;BME280;59983;52.010;5.420;2022-12-16T08:49:42;101535.00;;;-0.80;82.73
72110;BME280;59983;52.010;5.420;2022-12-16T08:52:28;101531.03;;;-0.78;82.70
72110;BME280;59983;52.010;5.420;2022-12-16T08:55:13;101539.88;;;-0.72;82.54
72110;BME280;59983;52.010;5.420;2022-12-16T08:57:58;101542.59;;;-0.67;82.75
72110;BME280;59983;52.010;5.420;2022-12-16T09:00:43;101551.63;;;-0.68;82.94
72110;BME280;59983;52.010;5.420;2022-12-16T09:03:34;101541.72;;;-0.73;82.89
72110;BME280;59983;52.010;5.420;2022-12-16T09:06:19;101546.06;;;-0.67;83.34
72110;BME280;59983;52.010;5.420;2022-12-16T09:09:07;101544.78;;;-0.59;82.66
72110;BME280;59983;52.010;5.420;2022-12-16T09:11:52;101537.09;;;-0.55;83.16
72110;BME280;59983;52.010;5.420;2022-12-16T09:14:37;101548.56;;;-0.23;83.19
72110;BME280;59983;52.010;5.420;2022-12-16T09:17:22;101562.06;;;-0.35;82.47
72110;BME280;59983;52.010;5.420;2022-12-16T09:20:07;101549.94;;;-0.47;83.07
72110;BME280;59983;52.010;5.420;2022-12-16T09:22:53;101555.00;;;-0.51;83.02
72110;BME280;59983;52.010;5.420;2022-12-16T09:25:37;101562.63;;;-0.28;83.36
72110;BME280;59983;52.010;5.420;2022-12-16T09:28:22;101566.44;;;-0.18;82.68
72110;BME280;59983;52.010;5.420;2022-12-16T09:31:07;101565.16;;;-0.16;83.13
72110;BME280;59983;52.010;5.420;2022-12-16T09:33:53;101563.06;;;-0.09;82.86
72110;BME280;59983;52.010;5.420;2022-12-16T09:36:38;101563.34;;;-0.05;83.14
72110;BME280;59983;52.010;5.420;2022-12-16T09:39:23;101574.31;;;-0.02;83.06
72110;BME280;59983;52.010;5.420;2022-12-16T09:45:13;101586.69;;;0.15;84.10
72110;BME280;59983;52.010;5.420;2022-12-16T09:51:39;101593.84;;;0.46;83.60
72110;BME280;59983;52.010;5.420;2022-12-16T09:54:28;101587.22;;;0.54;83.65
72110;BME280;59983;52.010;5.420;2022-12-16T09:57:16;101591.00;;;0.68;84.10
72110;BME280;59983;52.010;5.420;2022-12-16T10:00:05;101594.59;;;0.89;83.60
72110;BME280;59983;52.010;5.420;2022-12-16T10:02:50;101601.56;;;1.05;83.44
72110;BME280;59983;52.010;5.420;2022-12-16T10:05:59;101606.16;;;1.15;83.43
72110;BME280;59983;52.010;5.420;2022-12-16T10:08:53;101601.91;;;1.24;83.44
72110;BME280;59983;52.010;5.420;2022-12-16T10:12:03;101610.47;;;1.36;83.42
72110;BME280;59983;52.010;5.420;2022-12-16T10:15:08;101612.09;;;1.42;83.64
72110;BME280;59983;52.010;5.420;2022-12-16T10:18:00;101620.94;;;1.53;83.55
72110;BME280;59983;52.010;5.420;2022-12-16T10:20:51;101613.19;;;1.67;83.51
72110;BME280;59983;52.010;5.420;2022-12-16T10:26:52;101609.19;;;2.00;82.36
72110;BME280;59983;52.010;5.420;2022-12-16T10:29:42;101616.13;;;2.11;82.81
72110;BME280;59983;52.010;5.420;2022-12-16T10:32:37;101614.53;;;2.25;82.15
72110;BME280;59983;52.010;5.420;2022-12-16T10:35:32;101609.44;;;2.39;82.07
72110;BME280;59983;52.010;5.420;2022-12-16T10:38:24;101615.28;;;2.51;81.77
72110;BME280;59983;52.010;5.420;2022-12-16T10:41:14;101621.94;;;2.64;81.58
72110;BME280;59983;52.010;5.420;2022-12-16T10:43:59;101613.91;;;2.69;81.42
72110;BME280;59983;52.010;5.420;2022-12-16T10:46:45;101618.16;;;2.80;81.21
72110;BME280;59983;52.010;5.420;2022-12-16T10:49:53;101614.91;;;2.89;81.36
72110;BME280;59983;52.010;5.420;2022-12-16T10:52:56;101615.13;;;2.97;81.01
72110;BME280;59983;52.010;5.420;2022-12-16T10:58:57;101618.78;;;3.22;80.69
72110;BME280;59983;52.010;5.420;2022-12-16T11:01:56;101621.13;;;3.38;80.74
72110;BME280;59983;52.010;5.420;2022-12-16T11:04:41;101609.53;;;3.43;80.23
72110;BME280;59983;52.010;5.420;2022-12-16T11:10:41;101612.34;;;3.67;80.06
72110;BME280;59983;52.010;5.420;2022-12-16T11:13:34;101615.44;;;3.84;79.21
72110;BME280;59983;52.010;5.420;2022-12-16T11:16:21;101623.31;;;3.70;79.15
72110;BME280;59983;52.010;5.420;2022-12-16T11:22:22;101627.63;;;3.72;79.25
72110;BME280;59983;52.010;5.420;2022-12-16T11:25:17;101622.66;;;3.89;79.26
72110;BME280;59983;52.010;5.420;2022-12-16T11:28:14;101630.94;;;3.92;79.63
72110;BME280;59983;52.010;5.420;2022-12-16T11:31:02;101643.09;;;3.80;79.48
72110;BME280;59983;52.010;5.420;2022-12-16T11:33:51;101634.50;;;3.83;78.79
72110;BME280;59983;52.010;5.420;2022-12-16T11:36:38;101641.84;;;3.72;79.31
72110;BME280;59983;52.010;5.420;2022-12-16T11:39:26;101647.16;;;3.77;79.33
72110;BME280;59983;52.010;5.420;2022-12-16T11:42:21;101645.97;;;3.88;79.88
72110;BME280;59983;52.010;5.420;2022-12-16T11:45:16;101641.25;;;3.80;79.90
72110;BME280;59983;52.010;5.420;2022-12-16T11:48:21;101649.00;;;3.82;79.47
72110;BME280;59983;52.010;5.420;2022-12-16T11:51:12;101644.34;;;3.92;79.73
72110;BME280;59983;52.010;5.420;2022-12-16T11:54:07;101642.38;;;4.03;79.80
72110;BME280;59983;52.010;5.420;2022-12-16T11:56:57;101648.06;;;3.96;79.52
72110;BME280;59983;52.010;5.420;2022-12-16T11:59:53;101646.75;;;3.94;80.14
72110;BME280;59983;52.010;5.420;2022-12-16T12:08:35;101647.53;;;4.00;79.15
72110;BME280;59983;52.010;5.420;2022-12-16T12:11:30;101640.31;;;3.95;79.40
72110;BME280;59983;52.010;5.420;2022-12-16T12:20:33;101653.38;;;4.07;79.80
72110;BME280;59983;52.010;5.420;2022-12-16T12:26:23;101659.34;;;3.98;79.55
72110;BME280;59983;52.010;5.420;2022-12-16T12:39:02;101669.69;;;4.15;79.05
72110;BME280;59983;52.010;5.420;2022-12-16T12:45:04;101670.28;;;4.07;79.92
72110;BME280;59983;52.010;5.420;2022-12-16T12:51:06;101669.63;;;4.20;79.44
72110;BME280;59983;52.010;5.420;2022-12-16T12:54:14;101663.97;;;4.22;79.29
72110;BME280;59983;52.010;5.420;2022-12-16T12:57:03;101664.06;;;4.41;78.95
72110;BME280;59983;52.010;5.420;2022-12-16T13:00:00;101665.59;;;4.52;79.21
72110;BME280;59983;52.010;5.420;2022-12-16T13:05:37;101674.88;;;4.65;78.27
72110;BME280;59983;52.010;5.420;2022-12-16T13:08:41;101686.09;;;4.72;78.41
72110;BME280;59983;52.010;5.420;2022-12-16T13:11:26;101679.63;;;4.73;78.56
72110;BME280;59983;52.010;5.420;2022-12-16T13:17:21;101690.16;;;4.69;77.96
72110;BME280;59983;52.010;5.420;2022-12-16T13:20:34;101682.63;;;4.66;77.60
72110;BME280;59983;52.010;5.420;2022-12-16T13:23:45;101683.25;;;4.58;77.98
72110;BME280;59983;52.010;5.420;2022-12-16T13:26:32;101690.50;;;4.58;78.23
72110;BME280;59983;52.010;5.420;2022-12-16T13:35:04;101693.69;;;4.36;78.43
72110;BME280;59983;52.010;5.420;2022-12-16T13:38:27;101696.50;;;4.49;78.23
72110;BME280;59983;52.010;5.420;2022-12-16T13:53:32;101705.50;;;4.35;78.46
72110;BME280;59983;52.010;5.420;2022-12-16T13:56:23;101705.16;;;4.41;78.67
72110;BME280;59983;52.010;5.420;2022-12-16T13:59:16;101709.50;;;4.37;79.19
72110;BME280;59983;52.010;5.420;2022-12-16T14:02:18;101715.38;;;4.44;78.72
72110;BME280;59983;52.010;5.420;2022-12-16T14:05:15;101715.91;;;4.41;79.19
72110;BME280;59983;52.010;5.420;2022-12-16T14:08:05;101720.47;;;4.41;79.15
72110;BME280;59983;52.010;5.420;2022-12-16T14:10:58;101729.69;;;4.35;78.84
72110;BME280;59983;52.010;5.420;2022-12-16T14:13:57;101721.91;;;4.33;78.37
72110;BME280;59983;52.010;5.420;2022-12-16T14:26:13;101745.88;;;4.24;79.06
72110;BME280;59983;52.010;5.420;2022-12-16T14:28:59;101748.56;;;4.24;79.23
72110;BME280;59983;52.010;5.420;2022-12-16T14:31:51;101752.03;;;4.25;79.07
72110;BME280;59983;52.010;5.420;2022-12-16T14:34:36;101755.84;;;4.19;79.43
72110;BME280;59983;52.010;5.420;2022-12-16T14:37:31;101759.59;;;4.18;79.44
72110;BME280;59983;52.010;5.420;2022-12-16T14:40:34;101759.41;;;4.09;79.89
72110;BME280;59983;52.010;5.420;2022-12-16T14:43:21;101766.94;;;4.07;80.32
72110;BME280;59983;52.010;5.420;2022-12-16T14:49:25;101786.47;;;4.13;79.83
72110;BME280;59983;52.010;5.420;2022-12-16T14:52:25;101788.34;;;4.17;80.35
72110;BME280;59983;52.010;5.420;2022-12-16T14:55:11;101792.41;;;4.10;79.63
72110;BME280;59983;52.010;5.420;2022-12-16T14:58:08;101806.84;;;4.19;80.41
72110;BME280;59983;52.010;5.420;2022-12-16T15:00:57;101804.13;;;4.24;79.84
72110;BME280;59983;52.010;5.420;2022-12-16T15:03:46;101812.00;;;4.15;80.46
72110;BME280;59983;52.010;5.420;2022-12-16T15:06:41;101808.25;;;4.11;80.36
72110;BME280;59983;52.010;5.420;2022-12-16T15:09:48;101818.47;;;4.09;79.48
72110;BME280;59983;52.010;5.420;2022-12-16T15:12:40;101818.19;;;4.06;80.57
72110;BME280;59983;52.010;5.420;2022-12-16T15:15:33;101817.44;;;4.00;80.75
72110;BME280;59983;52.010;5.420;2022-12-16T15:18:27;101831.34;;;4.07;80.72
72110;BME280;59983;52.010;5.420;2022-12-16T15:21:14;101825.72;;;4.04;79.83
72110;BME280;59983;52.010;5.420;2022-12-16T15:23:59;101830.06;;;3.94;80.88
72110;BME280;59983;52.010;5.420;2022-12-16T15:26:44;101830.84;;;4.00;80.60
72110;BME280;59983;52.010;5.420;2022-12-16T15:29:49;101831.09;;;4.04;80.09
72110;BME280;59983;52.010;5.420;2022-12-16T15:32:34;101841.59;;;4.00;79.57
72110;BME280;59983;52.010;5.420;2022-12-16T15:38:16;101852.13;;;3.81;80.30
72110;BME280;59983;52.010;5.420;2022-12-16T15:41:04;101853.22;;;3.80;80.38
72110;BME280;59983;52.010;5.420;2022-12-16T15:43:50;101848.41;;;3.72;80.29
72110;BME280;59983;52.010;5.420;2022-12-16T15:46:35;101854.88;;;3.71;80.47
72110;BME280;59983;52.010;5.420;2022-12-16T15:49:31;101857.03;;;3.64;80.62
72110;BME280;59983;52.010;5.420;2022-12-16T15:52:40;101863.47;;;3.63;80.96
72110;BME280;59983;52.010;5.420;2022-12-16T15:55:38;101865.88;;;3.59;80.38
72110;BME280;59983;52.010;5.420;2022-12-16T15:58:36;101872.06;;;3.55;80.92
72110;BME280;59983;52.010;5.420;2022-12-16T16:01:24;101883.56;;;3.60;80.78
72110;BME280;59983;52.010;5.420;2022-12-16T16:04:27;101890.03;;;3.59;80.75
72110;BME280;59983;52.010;5.420;2022-12-16T16:07:23;101882.53;;;3.51;81.04
72110;BME280;59983;52.010;5.420;2022-12-16T16:10:19;101889.25;;;3.44;81.23
72110;BME280;59983;52.010;5.420;2022-12-16T16:13:04;101879.63;;;3.37;81.60
72110;BME280;59983;52.010;5.420;2022-12-16T16:15:50;101890.88;;;3.39;81.46
72110;BME280;59983;52.010;5.420;2022-12-16T16:18:35;101883.91;;;3.33;81.56
72110;BME280;59983;52.010;5.420;2022-12-16T16:21:21;101893.81;;;3.33;81.14